Time;durP1;ratioP1;P1;durP2;ratioP2;P2;SDS_P1;SDS_P2;PMS_P1;PMS_P2;Temp;Humidity;BMP_temperature;BMP_pressure;BME280_temperature;BME280_humidity;BME280_pressure;Samples;Min_cycle;Max_cycle;Signal;HPM_P1;HPM_P2
2022/05/29 00:03:37;;;;;;;1.13;0.67;;;;;;;14.43;67.05;95142.25;4271748;32;20203;-59
2022/05/29 00:19:38;;;;;;;1.10;1.00;;;;;;;14.14;69.71;95139.53;4384191;32;20291;-59
2022/05/29 00:22:44;;;;;;;1.13;1.07;;;;;;;14.25;68.57;95136.19;4368678;32;20184;-59
2022/05/29 05:32:06;;;;;;;1.47;1.37;;;;;;;13.62;67.37;94857.91;4361154;32;20321;-58
2022/05/29 06:51:30;;;;;;;1.20;1.07;;;;;;;13.81;66.21;94854.03;4383240;32;20280;-58
2022/05/29 07:07:01;;;;;;;0.80;0.80;;;;;;;14.30;65.97;94863.84;4358918;32;20255;-59
2022/05/29 07:09:32;;;;;;;0.60;0.60;;;;;;;14.06;64.99;94855.72;4382240;32;20278;-59
2022/05/29 07:12:26;;;;;;;0.80;0.80;;;;;;;14.22;66.69;94846.00;4352448;32;20235;-59
2022/05/29 07:15:01;;;;;;;0.80;0.80;;;;;;;14.21;65.24;94849.78;4365115;32;20233;-58
2022/05/29 07:17:27;;;;;;;0.77;0.77;;;;;;;14.57;66.01;94853.72;4370104;32;20196;-59
2022/05/29 07:19:53;;;;;;;0.87;0.87;;;;;;;14.44;66.67;94860.91;4369330;32;20208;-58
2022/05/29 07:22:20;;;;;;;1.40;0.97;;;;;;;14.74;64.87;94850.88;4363348;32;20197;-59
2022/05/29 07:25:02;;;;;;;0.40;0.40;;;;;;;14.60;63.12;94853.06;4362684;32;20234;-59
2022/05/29 07:27:29;;;;;;;0.87;0.60;;;;;;;14.61;64.10;94851.94;4356240;32;20199;-59
2022/05/29 07:29:54;;;;;;;0.30;0.30;;;;;;;14.58;63.82;94833.91;4389535;32;20203;-59
2022/05/29 07:32:23;;;;;;;1.13;0.60;;;;;;;14.52;64.46;94846.72;4341213;32;20208;-58
2022/05/29 07:34:48;;;;;;;0.73;0.73;;;;;;;14.71;64.93;94856.87;4368382;32;20223;-58
2022/05/29 07:37:16;;;;;;;0.57;0.57;;;;;;;14.58;65.00;94845.38;4369824;32;20341;-58
2022/05/29 07:39:46;;;;;;;0.63;0.63;;;;;;;14.66;63.64;94833.84;4366486;32;20232;-59
2022/05/29 07:44:59;;;;;;;1.07;0.80;;;;;;;14.63;65.28;94852.41;4317688;32;20202;-59
2022/05/29 07:47:46;;;;;;;3.23;1.27;;;;;;;14.76;63.11;94862.75;4390684;32;20223;-59
2022/05/29 07:50:27;;;;;;;3.23;1.17;;;;;;;14.42;61.76;94847.87;4384575;32;20227;-59
2022/05/29 07:52:54;;;;;;;1.80;1.10;;;;;;;14.35;61.47;94834.25;4383654;32;20252;-59
2022/05/29 07:55:21;;;;;;;1.93;1.80;;;;;;;14.41;60.62;94854.34;4371316;32;20189;-58
2022/05/29 07:57:48;;;;;;;0.50;0.50;;;;;;;14.41;64.89;94851.66;4346622;32;20415;-58
2022/05/29 08:00:20;;;;;;;0.57;0.57;;;;;;;14.47;61.79;94864.81;4375289;32;20184;-59
2022/05/29 08:02:49;;;;;;;0.90;0.90;;;;;;;14.33;64.24;94852.50;4360005;32;20201;-60
2022/05/29 08:05:18;;;;;;;1.50;0.93;;;;;;;14.36;61.36;94849.16;4359231;32;20264;-58
2022/05/29 08:07:46;;;;;;;0.70;0.70;;;;;;;14.50;63.65;94861.50;4396543;32;20192;-58
2022/05/29 08:10:15;;;;;;;2.30;1.30;;;;;;;14.53;64.48;94871.50;4413887;32;20303;-58
2022/05/29 08:12:44;;;;;;;1.07;0.70;;;;;;;14.75;62.85;94865.78;4368032;32;20204;-59
2022/05/29 08:15:12;;;;;;;0.97;0.70;;;;;;;14.74;61.39;94854.34;4379571;32;20203;-59
2022/05/29 08:17:39;;;;;;;1.30;1.27;;;;;;;14.55;61.37;94851.38;4393929;32;20275;-58
2022/05/29 08:20:16;;;;;;;1.00;1.00;;;;;;;14.61;63.67;94859.94;4352663;32;20203;-58
2022/05/29 08:22:41;;;;;;;1.03;1.03;;;;;;;14.57;59.42;94867.06;4362994;32;20199;-58
2022/05/29 08:30:51;;;;;;;1.47;1.47;;;;;;;14.70;63.51;94871.34;4387926;32;20301;-59
2022/05/29 08:33:26;;;;;;;7.87;1.23;;;;;;;14.81;62.71;94867.12;4387820;32;20180;-59
2022/05/29 08:36:00;;;;;;;2.07;1.33;;;;;;;14.90;61.87;94873.16;4344281;32;20196;-60
2022/05/29 08:38:27;;;;;;;1.07;1.07;;;;;;;15.04;62.02;94867.50;4399483;32;20203;-59
2022/05/29 08:40:58;;;;;;;1.03;1.03;;;;;;;15.02;61.04;94854.47;4388880;32;20237;-60
2022/05/29 08:43:39;;;;;;;0.53;0.53;;;;;;;14.95;60.65;94856.16;4404939;32;20252;-59
2022/05/29 08:46:22;;;;;;;0.67;0.67;;;;;;;15.03;61.61;94860.59;4361891;32;20294;-60
2022/05/29 08:48:53;;;;;;;1.73;0.67;;;;;;;14.93;61.76;94855.69;4385134;32;20229;-59
2022/05/29 08:51:57;;;;;;;1.20;1.17;;;;;;;15.08;63.36;94861.16;4388912;32;20279;-59
2022/05/29 08:55:04;;;;;;;0.70;0.70;;;;;;;14.91;61.41;94860.59;4323288;32;20227;-59
2022/05/29 08:57:54;;;;;;;0.93;0.93;;;;;;;15.07;62.32;94866.84;4335314;32;20310;-59
2022/05/29 09:00:54;;;;;;;0.97;0.73;;;;;;;15.19;60.03;94874.84;4335721;32;20207;-59
2022/05/29 09:03:48;;;;;;;0.87;0.83;;;;;;;15.05;60.92;94874.41;4364441;32;20241;-60
2022/05/29 09:06:36;;;;;;;1.27;1.13;;;;;;;15.22;62.24;94868.06;4367621;32;20260;-59
2022/05/29 09:09:45;;;;;;;0.80;0.80;;;;;;;15.09;58.59;94854.72;4328037;32;20181;-59
2022/05/29 09:12:17;;;;;;;0.83;0.83;;;;;;;15.16;58.70;94850.72;4317737;32;20251;-58
2022/05/29 09:15:21;;;;;;;1.53;1.10;;;;;;;15.38;59.23;94852.94;4378817;32;20231;-59
2022/05/29 09:17:51;;;;;;;0.40;0.40;;;;;;;15.64;57.83;94864.06;4382070;32;20192;-59
2022/05/29 09:20:41;;;;;;;0.53;0.53;;;;;;;15.77;55.42;94862.19;4344165;32;20300;-60
2022/05/29 09:23:13;;;;;;;0.60;0.60;;;;;;;15.79;56.74;94865.31;4341462;32;20248;-59
2022/05/29 09:25:44;;;;;;;1.00;0.57;;;;;;;15.89;56.01;94856.00;4314480;32;20186;-59
2022/05/29 09:28:24;;;;;;;1.00;1.00;;;;;;;16.37;56.58;94847.06;4338797;32;20197;-59
2022/05/29 09:31:25;;;;;;;1.80;1.40;;;;;;;16.32;54.39;94840.03;4366613;32;20188;-59
2022/05/29 09:33:53;;;;;;;0.70;0.70;;;;;;;16.38;54.28;94844.03;4338958;32;20193;-60
2022/05/29 09:36:44;;;;;;;0.30;0.30;;;;;;;16.34;53.32;94845.06;4304641;32;20201;-59
2022/05/29 09:39:35;;;;;;;2.20;0.83;;;;;;;16.30;55.04;94836.94;4338060;32;20184;-60
2022/05/29 09:42:11;;;;;;;4.90;1.23;;;;;;;16.70;55.49;94852.16;4353930;32;20188;-60
2022/05/29 09:44:37;;;;;;;0.50;0.50;;;;;;;16.75;54.48;94855.38;4323309;32;20204;-60
2022/05/29 09:50:11;;;;;;;0.93;0.93;;;;;;;16.40;52.00;94852.50;4349382;32;20215;-58
2022/05/29 09:52:41;;;;;;;0.43;0.43;;;;;;;15.61;55.07;94851.38;4315941;32;20197;-59
2022/05/29 09:55:28;;;;;;;0.37;0.37;;;;;;;15.93;57.29;94854.22;4356548;32;20184;-58
2022/05/29 09:58:17;;;;;;;2.73;0.80;;;;;;;15.84;57.97;94848.22;4345876;32;20197;-59
2022/05/29 10:00:55;;;;;;;0.70;0.70;;;;;;;15.90;55.50;94844.97;4323917;32;20243;-58
2022/05/29 10:03:43;;;;;;;7.83;0.77;;;;;;;16.00;59.04;94843.75;4341221;32;20206;-58
2022/05/29 10:06:23;;;;;;;0.20;0.20;;;;;;;16.39;55.16;94834.91;4351101;32;20233;-58
2022/05/29 10:08:52;;;;;;;0.40;0.40;;;;;;;16.50;53.58;94848.56;4350472;32;20192;-58
2022/05/29 10:11:21;;;;;;;0.77;0.77;;;;;;;16.57;55.39;94842.63;4373675;32;20211;-57
2022/05/29 10:13:51;;;;;;;0.30;0.30;;;;;;;16.79;56.85;94837.50;4329065;32;20366;-58
2022/05/29 10:16:50;;;;;;;0.47;0.47;;;;;;;16.94;54.63;94841.31;4322703;32;20202;-58
2022/05/29 10:19:33;;;;;;;0.20;0.20;;;;;;;17.26;54.31;94836.72;4295260;32;20300;-58
2022/05/29 10:22:02;;;;;;;0.43;0.43;;;;;;;17.12;51.65;94831.78;4376464;32;20200;-58
2022/05/29 10:24:39;;;;;;;0.70;0.70;;;;;;;16.68;53.19;94819.59;4362973;32;20196;-58
2022/05/29 10:27:21;;;;;;;1.13;0.90;;;;;;;16.68;54.88;94815.00;4365418;32;20188;-58
2022/05/29 10:30:07;;;;;;;0.40;0.40;;;;;;;16.56;57.13;94808.91;4370102;32;20206;-58
2022/05/29 10:32:36;;;;;;;0.40;0.40;;;;;;;16.78;54.46;94803.00;4367958;32;20239;-58
2022/05/29 10:35:25;;;;;;;0.53;0.53;;;;;;;16.71;54.03;94797.47;4347983;32;20550;-59
2022/05/29 10:37:53;;;;;;;0.50;0.50;;;;;;;16.62;52.75;94805.66;4366353;32;20231;-58
2022/05/29 10:40:33;;;;;;;0.63;0.40;;;;;;;16.81;55.34;94805.00;4352291;32;20192;-59
2022/05/29 10:43:01;;;;;;;1.80;1.70;;;;;;;16.81;55.83;94808.47;4380586;32;20203;-59
2022/05/29 10:45:33;;;;;;;1.07;0.83;;;;;;;16.83;54.78;94810.81;4358815;32;20184;-59
2022/05/29 10:48:12;;;;;;;0.93;0.93;;;;;;;16.63;53.50;94806.41;4317977;32;20193;-58
2022/05/29 10:50:53;;;;;;;0.90;0.90;;;;;;;16.72;54.54;94799.81;4355105;32;20290;-59
2022/05/29 10:53:30;;;;;;;0.60;0.60;;;;;;;16.60;53.60;94801.75;4384269;32;20239;-59
2022/05/29 10:56:07;;;;;;;0.37;0.37;;;;;;;15.92;53.12;94802.63;4413446;32;20192;-59
2022/05/29 10:59:10;;;;;;;0.73;0.60;;;;;;;15.97;56.83;94813.09;4405622;32;20227;-58
2022/05/29 11:04:58;;;;;;;1.00;1.00;;;;;;;15.51;58.69;94809.03;4363998;32;20252;-58
2022/05/29 11:07:46;;;;;;;1.67;0.53;;;;;;;15.48;62.41;94812.38;4406312;32;20196;-58
2022/05/29 11:10:35;;;;;;;0.40;0.40;;;;;;;15.13;63.95;94818.19;4405260;32;20183;-58
2022/05/29 11:13:43;;;;;;;0.50;0.50;;;;;;;14.54;62.96;94817.81;4401558;32;20211;-59
2022/05/29 11:16:26;;;;;;;0.20;0.20;;;;;;;14.21;63.90;94819.66;4402154;32;20196;-59
2022/05/29 11:19:07;;;;;;;4.33;1.20;;;;;;;14.43;67.76;94827.31;4393480;32;20199;-58
2022/05/29 11:21:52;;;;;;;0.90;0.87;;;;;;;14.82;69.30;94844.66;4387115;32;20231;-58
2022/05/29 11:24:29;;;;;;;3.50;1.23;;;;;;;14.74;70.18;94837.53;4394910;32;20200;-58
2022/05/29 11:27:22;;;;;;;2.20;0.93;;;;;;;14.73;71.05;94843.97;4405693;32;20204;-58
2022/05/29 11:30:07;;;;;;;0.40;0.40;;;;;;;13.86;72.02;94840.50;4403991;32;20176;-58
2022/05/29 11:32:38;;;;;;;0.50;0.50;;;;;;;12.59;75.94;94858.34;4380409;32;20289;-57
2022/05/29 11:35:32;;;;;;;0.40;0.40;;;;;;;12.35;77.87;94864.94;4392174;32;20271;-58
2022/05/29 11:38:09;;;;;;;0.40;0.40;;;;;;;12.76;77.38;94862.84;4396731;32;20255;-58
2022/05/29 11:40:41;;;;;;;0.37;0.37;;;;;;;12.45;78.19;94871.06;4399631;32;20195;-58
2022/05/29 11:43:18;;;;;;;1.40;0.50;;;;;;;12.90;78.50;94863.41;4407456;32;20184;-59
2022/05/29 11:51:45;;;;;;;0.60;0.40;;;;;;;12.51;78.47;94869.78;4398922;32;20199;-58
2022/05/29 11:54:21;;;;;;;0.63;0.50;;;;;;;12.45;80.75;94871.06;4390238;32;20203;-58
2022/05/29 11:56:51;;;;;;;0.37;0.37;;;;;;;12.39;81.14;94863.22;4383153;32;20199;-58
2022/05/29 11:59:22;;;;;;;0.50;0.50;;;;;;;12.60;80.95;94865.22;4404419;32;20260;-58
2022/05/29 12:02:00;;;;;;;0.30;0.30;;;;;;;12.98;80.46;94873.25;4408728;32;20180;-58
2022/05/29 12:04:53;;;;;;;1.23;0.80;;;;;;;12.70;80.48;94886.16;4403645;32;20187;-59
2022/05/29 12:07:37;;;;;;;0.40;0.40;;;;;;;13.10;80.75;94897.31;4411335;32;20188;-58
2022/05/29 12:10:20;;;;;;;3.70;0.83;;;;;;;13.41;80.81;94905.06;4392953;32;20237;-59
2022/05/29 12:12:55;;;;;;;0.70;0.70;;;;;;;13.26;80.32;94900.28;4395955;32;20331;-59
2022/05/29 12:15:21;;;;;;;0.83;0.37;;;;;;;13.44;79.99;94911.63;4393485;32;20206;-58
2022/05/29 12:18:01;;;;;;;0.10;0.10;;;;;;;13.52;80.26;94910.81;4411339;32;20180;-59
2022/05/29 12:20:37;;;;;;;0.50;0.50;;;;;;;13.31;78.94;94916.06;4398612;32;20202;-58
2022/05/29 12:23:08;;;;;;;0.70;0.70;;;;;;;13.35;76.92;94909.78;4392459;32;20219;-59
2022/05/29 12:25:43;;;;;;;0.50;0.50;;;;;;;12.94;77.45;94907.72;4403952;32;20368;-59
2022/05/29 12:28:18;;;;;;;0.90;0.90;;;;;;;12.82;77.48;94910.25;4392252;32;20199;-59
2022/05/29 12:30:48;;;;;;;0.33;0.33;;;;;;;12.88;77.40;94914.34;4408529;32;20266;-58
2022/05/29 12:33:24;;;;;;;0.30;0.20;;;;;;;12.98;79.26;94907.88;4405057;32;20335;-58
2022/05/29 12:36:13;;;;;;;0.27;0.27;;;;;;;13.15;77.57;94909.69;4399100;32;20223;-58
2022/05/29 12:38:57;;;;;;;0.40;0.40;;;;;;;13.25;77.60;94906.72;4401390;32;20188;-58
2022/05/29 12:41:49;;;;;;;0.50;0.47;;;;;;;13.29;78.24;94912.97;4396220;32;20203;-58
2022/05/29 12:44:45;;;;;;;1.10;0.70;;;;;;;13.62;78.94;94913.88;4409565;32;20271;-59
2022/05/29 12:47:34;;;;;;;0.13;0.13;;;;;;;14.01;76.54;94906.59;4392242;32;20247;-59
2022/05/29 12:50:03;;;;;;;0.77;0.77;;;;;;;14.10;75.60;94904.66;4403189;32;20203;-59
2022/05/29 12:52:47;;;;;;;0.20;0.20;;;;;;;14.04;76.50;94895.28;4406297;32;20188;-59
2022/05/29 12:55:20;;;;;;;0.53;0.53;;;;;;;13.84;76.20;94899.50;4386626;32;20188;-59
2022/05/29 12:57:53;;;;;;;0.20;0.20;;;;;;;14.07;76.49;94900.75;4378047;32;20271;-59
2022/05/29 13:00:26;;;;;;;1.20;0.70;;;;;;;14.13;75.26;94896.00;4384447;32;20256;-59
2022/05/29 13:03:18;;;;;;;0.20;0.20;;;;;;;14.19;76.44;94888.56;4402855;32;20247;-59
2022/05/29 13:06:08;;;;;;;0.50;0.50;;;;;;;13.46;76.49;94896.91;4382740;32;20188;-60
2022/05/29 13:09:21;;;;;;;0.33;0.33;;;;;;;13.04;75.50;94896.72;4376842;32;20209;-59
2022/05/29 13:11:51;;;;;;;0.50;0.50;;;;;;;12.86;78.33;94889.91;4374219;32;20199;-59
2022/05/29 13:14:20;;;;;;;0.20;0.20;;;;;;;12.65;76.40;94873.06;4389719;32;20193;-60
2022/05/29 13:16:58;;;;;;;2.93;0.60;;;;;;;12.77;77.07;94881.16;4377304;32;20268;-60
2022/05/29 13:19:26;;;;;;;6.23;5.63;;;;;;;12.85;77.41;94869.72;4359814;32;20194;-60
2022/05/29 13:22:05;;;;;;;0.40;0.40;;;;;;;13.00;76.76;94869.19;4369232;32;20192;-59
2022/05/29 13:24:37;;;;;;;0.10;0.10;;;;;;;12.60;75.72;94858.03;4360587;32;20226;-59
2022/05/29 13:27:08;;;;;;;0.30;0.30;;;;;;;12.45;74.00;94845.22;4341716;32;20250;-59
2022/05/29 13:29:55;;;;;;;0.20;0.20;;;;;;;12.36;76.99;94850.56;4352650;32;20279;-59
2022/05/29 13:32:27;;;;;;;0.20;0.20;;;;;;;12.54;76.80;94853.19;4377792;32;20208;-60
2022/05/29 13:35:16;;;;;;;0.50;0.50;;;;;;;12.37;76.41;94846.81;4376142;32;20184;-59
2022/05/29 13:37:49;;;;;;;0.20;0.20;;;;;;;12.38;74.71;94840.37;4388755;32;20200;-60
2022/05/29 13:40:45;;;;;;;0.30;0.30;;;;;;;12.53;75.04;94844.41;4376237;32;20322;-59
2022/05/29 13:43:37;;;;;;;0.07;0.07;;;;;;;12.72;73.39;94847.50;4377690;32;20191;-59
2022/05/29 13:46:18;;;;;;;0.00;0.00;;;;;;;12.53;69.19;94848.97;4372401;32;20282;-60
2022/05/29 13:49:05;;;;;;;0.10;0.10;;;;;;;12.48;72.63;94846.47;4377010;32;20232;-59
2022/05/29 13:51:41;;;;;;;0.30;0.30;;;;;;;12.71;72.46;94845.16;4390385;32;20230;-60
2022/05/29 13:54:12;;;;;;;0.10;0.10;;;;;;;12.73;70.48;94846.41;4382665;32;20208;-59
2022/05/29 13:56:58;;;;;;;0.00;0.00;;;;;;;12.91;70.95;94847.13;4391346;32;20192;-60
2022/05/29 14:05:29;;;;;;;0.40;0.40;;;;;;;13.13;69.41;94831.97;4397296;32;20195;-60
2022/05/29 14:08:19;;;;;;;0.50;0.50;;;;;;;13.20;71.97;94837.62;4365684;32;20214;-60
2022/05/29 14:11:11;;;;;;;1.17;0.67;;;;;;;13.06;69.06;94849.25;4400501;32;20172;-60
2022/05/29 14:13:52;;;;;;;0.33;0.33;;;;;;;13.24;68.55;94841.22;4387008;32;20184;-60
2022/05/29 14:16:31;;;;;;;0.60;0.60;;;;;;;13.29;68.48;94838.38;4382351;32;20207;-60
2022/05/29 14:19:13;;;;;;;0.27;0.27;;;;;;;13.18;68.55;94834.50;4379920;32;20217;-61
2022/05/29 14:21:51;;;;;;;0.63;0.63;;;;;;;12.99;67.19;94835.66;4400046;32;20254;-60
2022/05/29 14:24:40;;;;;;;0.10;0.10;;;;;;;13.04;68.00;94843.47;4404838;32;20315;-61
2022/05/29 14:28:04;;;;;;;0.50;0.50;;;;;;;12.74;67.23;94839.97;4374140;32;20189;-60
2022/05/29 14:31:07;;;;;;;0.33;0.33;;;;;;;13.00;67.36;94837.22;4365839;32;20256;-61
2022/05/29 14:34:12;;;;;;;0.50;0.47;;;;;;;13.08;67.93;94844.41;4389816;32;20221;-61
2022/05/29 14:37:12;;;;;;;0.27;0.27;;;;;;;13.17;68.41;94838.25;4391739;32;20235;-61
2022/05/29 14:39:43;;;;;;;0.80;0.80;;;;;;;13.18;68.05;94837.94;4367270;32;20185;-60
2022/05/29 14:42:16;;;;;;;3.30;1.07;;;;;;;13.30;65.29;94840.69;4385284;32;20184;-60
2022/05/29 14:45:14;;;;;;;0.27;0.27;;;;;;;13.13;64.06;94840.75;4378857;32;20283;-61
2022/05/29 14:47:45;;;;;;;0.07;0.07;;;;;;;13.19;64.81;94836.06;4399614;32;20198;-60
2022/05/29 14:50:28;;;;;;;0.30;0.30;;;;;;;13.18;64.41;94835.28;4378657;32;20215;-61
2022/05/29 14:53:35;;;;;;;0.10;0.10;;;;;;;13.03;65.23;94847.25;4379295;32;20200;-60
2022/05/29 14:56:07;;;;;;;0.43;0.43;;;;;;;13.23;65.39;94855.63;4350457;32;20265;-60
2022/05/29 14:58:40;;;;;;;0.13;0.13;;;;;;;13.22;65.32;94848.75;4325108;32;20227;-60
2022/05/29 15:01:26;;;;;;;0.43;0.43;;;;;;;13.25;64.95;94846.22;4377403;32;20200;-60
2022/05/29 15:03:56;;;;;;;0.33;0.33;;;;;;;13.25;65.32;94843.56;4361187;32;20230;-60
2022/05/29 15:12:28;;;;;;;0.60;0.60;;;;;;;13.31;65.80;94849.47;4376238;32;20207;-60
2022/05/29 15:15:30;;;;;;;0.20;0.20;;;;;;;13.15;65.12;94845.75;4385351;32;20196;-61
2022/05/29 15:18:16;;;;;;;0.30;0.30;;;;;;;13.29;64.46;94854.38;4368210;32;20188;-60
2022/05/29 15:26:21;;;;;;;0.50;0.50;;;;;;;13.31;65.60;94860.91;4388028;32;20234;-60
2022/05/29 15:28:53;;;;;;;0.60;0.60;;;;;;;13.28;65.33;94868.78;4402318;32;20323;-61
2022/05/29 15:31:28;;;;;;;2.17;0.37;;;;;;;13.17;65.61;94867.56;4366211;32;20188;-60
2022/05/29 15:34:28;;;;;;;0.23;0.23;;;;;;;13.20;66.88;94866.94;4357539;32;20244;-61
2022/05/29 15:37:23;;;;;;;0.30;0.30;;;;;;;13.15;66.50;94861.75;4380911;32;20222;-61
2022/05/29 15:40:06;;;;;;;0.43;0.43;;;;;;;13.15;65.70;94875.06;4326709;32;20277;-60
2022/05/29 15:43:14;;;;;;;0.37;0.37;;;;;;;13.04;67.32;94875.44;4363971;32;20201;-61
2022/05/29 15:45:59;;;;;;;0.10;0.10;;;;;;;12.99;67.86;94870.28;4359580;32;20185;-61
2022/05/29 15:48:48;;;;;;;0.20;0.20;;;;;;;12.93;67.72;94884.06;4403008;32;20189;-61
2022/05/29 15:51:49;;;;;;;0.37;0.37;;;;;;;12.77;72.60;94897.13;4367302;32;20270;-61
2022/05/29 15:54:45;;;;;;;0.10;0.10;;;;;;;12.46;75.27;94885.91;4369357;32;20259;-61
2022/05/29 15:57:27;;;;;;;0.60;0.60;;;;;;;12.19;76.68;94887.03;4368031;32;20200;-60
2022/05/29 16:00:09;;;;;;;0.40;0.40;;;;;;;11.93;80.21;94902.97;4322569;32;20184;-61
2022/05/29 16:02:48;;;;;;;0.30;0.23;;;;;;;11.64;81.47;94900.84;4385922;32;20206;-60
2022/05/29 16:05:21;;;;;;;0.10;0.10;;;;;;;11.36;83.87;94905.66;4377226;32;20215;-60
2022/05/29 16:07:47;;;;;;;0.30;0.30;;;;;;;11.15;85.68;94907.28;4363340;32;20325;-61
2022/05/29 16:10:15;;;;;;;0.30;0.30;;;;;;;10.94;87.27;94912.34;4365577;32;20185;-60
2022/05/29 16:13:08;;;;;;;1.10;1.10;;;;;;;11.00;88.56;94906.62;4378001;32;20212;-60
2022/05/29 16:15:47;;;;;;;1.30;0.70;;;;;;;10.90;89.61;94914.84;4380412;32;20269;-60
2022/05/29 16:18:30;;;;;;;0.50;0.50;;;;;;;10.75;90.50;94917.87;4387789;32;20177;-60
2022/05/29 16:21:04;;;;;;;1.80;0.90;;;;;;;10.64;91.44;94917.34;4352810;32;20188;-60
2022/05/29 16:23:49;;;;;;;0.30;0.30;;;;;;;10.69;90.41;94916.44;4332923;32;20320;-60
2022/05/29 16:26:23;;;;;;;1.03;0.73;;;;;;;10.71;91.00;94922.22;4369959;32;20196;-59
2022/05/29 16:29:10;;;;;;;0.40;0.40;;;;;;;10.82;91.28;94923.53;4353227;32;20176;-59
2022/05/29 16:32:00;;;;;;;0.50;0.50;;;;;;;10.92;91.18;94920.62;4379532;32;20189;-60
2022/05/29 16:34:42;;;;;;;0.33;0.33;;;;;;;10.80;88.60;94928.38;4332237;32;20192;-60
2022/05/29 16:49:29;;;;;;;0.00;0.00;;;;;;;10.45;84.94;94942.47;4332476;32;20269;-60
2022/05/29 16:51:59;;;;;;;0.00;0.00;;;;;;;10.29;86.17;94950.00;4360023;32;20291;-60
2022/05/29 16:54:31;;;;;;;0.20;0.20;;;;;;;10.26;87.39;94948.75;4313253;32;20193;-59
2022/05/29 16:57:11;;;;;;;0.27;0.27;;;;;;;10.28;86.64;94943.94;4363671;32;20334;-62
2022/05/29 16:59:56;;;;;;;0.13;0.13;;;;;;;10.38;86.27;94942.13;4369311;32;20285;-59
2022/05/29 17:03:34;;;;;;;0.67;0.23;;;;;;;10.33;87.10;94943.03;4341561;32;20184;-60
2022/05/29 17:06:08;;;;;;;0.37;0.37;;;;;;;10.09;88.34;94945.94;4254578;33;20303;-60
2022/05/29 17:08:49;;;;;;;0.20;0.20;;;;;;;10.35;87.63;94940.09;4286191;33;20354;-60
2022/05/29 17:11:19;;;;;;;1.27;0.23;;;;;;;10.46;85.83;94936.09;4318678;33;20328;-59
2022/05/29 17:13:45;;;;;;;0.00;0.00;;;;;;;10.33;85.92;94946.47;4287372;33;20319;-59
2022/05/29 17:16:11;;;;;;;0.10;0.10;;;;;;;10.56;85.09;94936.66;4311568;33;20297;-59
2022/05/29 17:18:37;;;;;;;0.27;0.27;;;;;;;10.46;85.69;94939.53;4299519;33;20201;-59
2022/05/29 17:21:17;;;;;;;0.10;0.10;;;;;;;10.40;84.94;94934.63;4359782;32;20184;-59
2022/05/29 17:24:01;;;;;;;0.20;0.20;;;;;;;10.14;87.83;94937.09;4325454;32;20215;-59
2022/05/29 17:26:32;;;;;;;0.20;0.20;;;;;;;10.35;86.67;94940.09;4345833;32;20324;-61
2022/05/29 17:29:28;;;;;;;0.20;0.20;;;;;;;10.42;85.16;94932.47;4364010;32;20327;-59
2022/05/29 17:32:07;;;;;;;0.10;0.10;;;;;;;10.31;84.08;94938.03;4376169;32;20236;-59
2022/05/29 17:34:36;;;;;;;0.03;0.03;;;;;;;10.34;85.30;94923.41;4356438;32;20364;-59
2022/05/29 17:37:10;;;;;;;0.20;0.20;;;;;;;10.33;83.98;94922.59;4367218;32;20273;-59
2022/05/29 17:39:46;;;;;;;0.33;0.33;;;;;;;10.47;83.87;94921.75;4371457;32;20288;-59
2022/05/29 17:42:12;;;;;;;0.27;0.20;;;;;;;10.71;83.13;94919.56;4378550;32;20192;-59
2022/05/29 17:44:43;;;;;;;2.13;1.33;;;;;;;10.82;83.30;94915.56;4380520;32;20294;-59
2022/05/29 17:47:33;;;;;;;0.10;0.10;;;;;;;10.66;83.32;94919.69;4374227;32;20200;-59
2022/05/29 17:50:14;;;;;;;0.10;0.10;;;;;;;10.74;85.40;94921.62;4369955;32;20314;-58
2022/05/29 17:53:32;;;;;;;0.80;0.80;;;;;;;10.97;83.88;94915.19;4368726;32;20266;-59
2022/05/29 17:55:58;;;;;;;0.10;0.10;;;;;;;11.09;83.70;94911.16;4293017;33;20291;-60
2022/05/29 17:58:24;;;;;;;0.03;0.03;;;;;;;11.13;83.77;94920.09;4384066;32;20210;-60
2022/05/29 18:00:53;;;;;;;0.20;0.20;;;;;;;11.15;85.00;94915.25;4374585;32;20259;-60
2022/05/29 18:03:32;;;;;;;0.33;0.33;;;;;;;11.25;85.22;94913.09;4404867;32;20180;-60
2022/05/29 18:05:59;;;;;;;0.97;0.40;;;;;;;11.01;86.08;94918.78;4364602;32;20180;-61
2022/05/29 18:08:24;;;;;;;0.10;0.10;;;;;;;11.13;85.37;94915.56;4350985;32;20210;-63
2022/05/29 18:10:53;;;;;;;0.50;0.50;;;;;;;11.10;84.50;94920.69;4376075;32;20192;-61
2022/05/29 18:13:18;;;;;;;0.30;0.30;;;;;;;10.92;85.79;94923.28;4364958;32;20259;-60
2022/05/29 18:15:44;;;;;;;0.20;0.20;;;;;;;11.11;85.78;94922.25;4380722;32;20229;-58
2022/05/29 18:18:11;;;;;;;0.00;0.00;;;;;;;10.99;87.41;94923.63;4389057;32;20280;-59
2022/05/29 18:20:37;;;;;;;0.37;0.37;;;;;;;10.82;87.92;94923.53;4389937;32;20193;-60
2022/05/29 18:23:04;;;;;;;0.30;0.30;;;;;;;10.92;87.33;94920.62;4394306;32;20206;-60
2022/05/29 18:25:32;;;;;;;0.30;0.30;;;;;;;10.58;89.37;94931.03;4357679;32;20224;-60
2022/05/29 18:27:58;;;;;;;0.73;0.43;;;;;;;10.64;89.47;94932.47;4379972;32;20301;-61
2022/05/29 18:30:25;;;;;;;0.20;0.20;;;;;;;10.83;88.69;94924.31;4378904;32;20197;-58
2022/05/29 18:32:51;;;;;;;0.23;0.23;;;;;;;10.85;88.99;94928.22;4403829;32;20188;-59
2022/05/29 18:35:18;;;;;;;0.67;0.27;;;;;;;10.89;88.70;94923.09;4332954;32;20312;-62
2022/05/29 18:37:46;;;;;;;0.57;0.57;;;;;;;10.79;88.87;94926.03;4348024;32;20185;-59
2022/05/29 18:40:13;;;;;;;0.57;0.57;;;;;;;11.02;87.99;94930.19;4361953;32;20185;-41
2022/05/29 18:42:39;;;;;;;0.20;0.20;;;;;;;12.61;98.18;94923.47;4321065;32;20203;-44
2022/05/29 18:45:05;;;;;;;0.63;0.63;;;;;;;13.61;95.29;94930.97;4371374;32;20255;-44
2022/05/29 18:47:31;;;;;;;4.03;0.37;;;;;;;13.99;88.65;94933.59;4381921;32;20180;-43
2022/05/29 18:49:56;;;;;;;0.57;0.57;;;;;;;14.38;82.67;94932.34;4381471;32;20245;-44
2022/05/29 18:52:21;;;;;;;0.20;0.20;;;;;;;14.77;81.42;94933.75;4391242;32;20206;-46
2022/05/29 18:54:47;;;;;;;0.27;0.27;;;;;;;15.02;79.43;94934.63;4395474;32;20319;-44
2022/05/29 18:57:13;;;;;;;0.20;0.20;;;;;;;15.29;78.20;94933.22;4410462;32;20218;-43
2022/05/29 18:59:48;;;;;;;3.47;0.40;;;;;;;15.45;77.63;94933.34;4394736;32;20233;-43
2022/05/29 19:02:19;;;;;;;0.60;0.43;;;;;;;15.40;73.21;94939.69;4393403;32;20249;-42
2022/05/29 19:04:47;;;;;;;0.13;0.13;;;;;;;15.65;75.47;94932.50;4399114;32;20354;-45
2022/05/29 19:07:13;;;;;;;0.10;0.10;;;;;;;15.77;74.92;94937.06;4363951;32;20184;-46
2022/05/29 19:09:40;;;;;;;0.40;0.40;;;;;;;15.60;69.69;94937.28;4369074;32;20275;-44
2022/05/29 19:12:08;;;;;;;0.40;0.40;;;;;;;15.76;73.16;94930.16;4378742;32;20203;-45
2022/05/29 19:14:34;;;;;;;0.10;0.10;;;;;;;15.88;73.24;94929.34;4380321;32;20211;-43
2022/05/29 19:18:09;;;;;;;0.30;0.30;;;;;;;16.04;73.06;94924.87;4385459;32;20184;-46
2022/05/29 19:19:50;;;;;;;0.20;0.20;;;;;;;16.12;72.49;94927.44;4410291;32;20332;-46
2022/05/29 19:22:16;;;;;;;0.10;0.10;;;;;;;16.07;67.80;94930.34;4394795;32;20267;-43
2022/05/29 19:24:44;;;;;;;0.23;0.23;;;;;;;16.29;71.00;94930.97;4387880;32;20202;-46
2022/05/29 19:27:12;;;;;;;0.00;0.00;;;;;;;16.31;70.86;94923.38;4354974;32;20206;-44
2022/05/29 19:29:38;;;;;;;0.20;0.20;;;;;;;16.35;70.33;94935.75;4392450;32;20214;-46
2022/05/29 19:32:10;;;;;;;0.10;0.10;;;;;;;16.26;69.36;94932.41;4377125;32;20256;-46
2022/05/29 19:34:35;;;;;;;0.17;0.17;;;;;;;16.20;69.81;94928.44;4374937;32;20180;-44
2022/05/29 19:37:01;;;;;;;0.77;0.53;;;;;;;15.45;67.95;94925.31;4376870;32;20207;-43
2022/05/29 19:39:26;;;;;;;0.10;0.10;;;;;;;15.76;70.07;94930.94;4392275;32;20180;-43
2022/05/29 19:41:54;;;;;;;0.37;0.37;;;;;;;15.65;68.96;94934.38;4402619;32;20192;-45
2022/05/29 19:44:19;;;;;;;0.50;0.50;;;;;;;14.07;70.17;94938.09;4390243;32;20207;-43
2022/05/29 19:46:44;;;;;;;0.03;0.03;;;;;;;13.45;73.48;94932.63;4367781;32;20224;-43
2022/05/29 19:49:10;;;;;;;0.40;0.40;;;;;;;13.40;73.95;94935.47;4400202;32;20223;-43
2022/05/29 19:51:37;;;;;;;0.17;0.17;;;;;;;13.25;74.56;94934.13;4376452;32;20196;-44
2022/05/29 19:54:02;;;;;;;0.33;0.33;;;;;;;12.56;77.13;94933.47;4387980;32;20236;-61
2022/05/29 19:56:29;;;;;;;0.50;0.50;;;;;;;12.28;79.77;94933.78;4395411;32;20184;-62
2022/05/29 19:58:58;;;;;;;0.43;0.43;;;;;;;13.35;80.21;94932.97;4385172;32;20200;-63
2022/05/29 20:01:29;;;;;;;0.63;0.50;;;;;;;13.38;78.87;94927.81;4397073;32;20204;-62
2022/05/29 20:03:57;;;;;;;0.30;0.30;;;;;;;13.26;79.36;94926.91;4405682;32;20176;-61
2022/05/29 20:06:25;;;;;;;0.30;0.30;;;;;;;13.18;80.75;94925.84;4368420;32;20214;-61